Time;durP1;ratioP1;P1;durP2;ratioP2;P2;SDS_P1;SDS_P2;PMS_P1;PMS_P2;Temp;Humidity;BMP_temperature;BMP_pressure;BME280_temperature;BME280_humidity;BME280_pressure;Samples;Min_cycle;Max_cycle;Signal;HPM_P1;HPM_P2
2021/07/01 05:10:22;;;;;;;12.50;7.92;;;;;;;24.05;70.33;99565.89;1719235;82;21092;-42
2021/07/01 05:12:59;;;;;;;14.63;8.90;;;;;;;24.14;70.01;99558.61;1696922;83;21168;-37
2021/07/01 05:15:26;;;;;;;26.73;10.38;;;;;;;24.14;68.36;99562.14;1653480;85;21541;-38
2021/07/01 05:17:57;;;;;;;27.32;11.45;;;;;;;24.09;68.88;99566.93;1698812;83;21111;-37
2021/07/01 05:20:24;;;;;;;48.80;20.45;;;;;;;24.10;68.72;99558.43;1643077;85;21019;-37
2021/07/01 05:23:10;;;;;;;37.28;17.70;;;;;;;24.15;69.36;99550.97;1653261;86;21076;-37
2021/07/01 05:25:50;;;;;;;30.30;18.52;;;;;;;24.26;69.61;99557.77;1612555;88;21089;-42
2021/07/01 05:28:35;;;;;;;30.82;15.90;;;;;;;24.48;68.92;99577.73;1655400;86;21100;-36
2021/07/01 05:31:20;;;;;;;18.50;11.35;;;;;;;24.54;68.52;99575.48;1652863;86;21060;-42
2021/07/01 05:34:01;;;;;;;16.75;9.70;;;;;;;24.53;67.12;99594.32;1657290;86;21100;-42
2021/07/01 05:36:29;;;;;;;21.75;8.95;;;;;;;24.60;67.30;99600.47;1645003;86;21166;-41
2021/07/01 05:38:57;;;;;;;14.68;9.88;;;;;;;24.60;67.30;99600.47;1644359;85;21052;-38
2021/07/01 05:41:24;;;;;;;24.20;11.50;;;;;;;24.50;67.58;99605.20;1635241;86;21068;-33
2021/07/01 05:43:51;;;;;;;11.12;8.75;;;;;;;24.50;67.58;99605.20;1624325;88;21073;-37
2021/07/01 05:46:19;;;;;;;21.37;9.25;;;;;;;24.50;67.90;99605.20;1636998;87;21015;-38
2021/07/01 05:48:47;;;;;;;15.03;8.45;;;;;;;24.56;67.86;99597.62;1651526;85;21154;-38
2021/07/01 05:51:15;;;;;;;18.52;8.78;;;;;;;24.59;67.88;99589.88;1626301;86;21025;-38
2021/07/01 05:54:05;;;;;;;14.70;8.43;;;;;;;24.68;67.45;99605.27;1666424;85;21060;-39
2021/07/01 05:56:22;;;;;;;23.92;10.58;;;;;;;24.72;67.16;99598.77;1661756;85;21021;-39
2021/07/01 05:58:49;;;;;;;20.15;9.63;;;;;;;24.82;68.07;99619.05;1662988;85;21051;-34
2021/07/01 06:01:16;;;;;;;21.60;9.53;;;;;;;24.94;66.55;99620.37;1666012;84;21494;-39
2021/07/01 06:03:43;;;;;;;19.42;9.08;;;;;;;24.94;66.55;99620.37;1698526;84;21647;-39
2021/07/01 06:06:12;;;;;;;15.93;8.90;;;;;;;24.96;66.59;99624.28;1695998;84;21632;-34
2021/07/01 06:08:48;;;;;;;14.63;8.90;;;;;;;24.97;65.20;99624.64;1667205;84;21080;-37
2021/07/01 06:11:16;;;;;;;15.40;9.38;;;;;;;24.95;66.28;99619.89;1701188;84;21061;-35
2021/07/01 06:13:44;;;;;;;18.82;9.95;;;;;;;24.99;66.90;99628.55;1708237;83;21575;-37
2021/07/01 06:16:12;;;;;;;21.70;11.35;;;;;;;25.00;66.86;99626.27;1695873;83;21088;-37
2021/07/01 06:18:40;;;;;;;16.20;10.35;;;;;;;25.03;65.67;99626.89;1684678;83;21132;-38
2021/07/01 06:21:08;;;;;;;14.73;10.08;;;;;;;25.04;66.14;99617.89;1649766;86;21474;-36
2021/07/01 06:23:38;;;;;;;18.10;11.55;;;;;;;25.13;67.18;99626.66;1626517;86;21129;-38
2021/07/01 06:26:04;;;;;;;19.42;12.50;;;;;;;25.17;67.74;99635.34;1612403;86;21061;-39
2021/07/01 06:28:40;;;;;;;19.80;12.88;;;;;;;25.19;68.53;99638.75;1685894;83;21084;-39
2021/07/01 06:31:09;;;;;;;20.92;12.13;;;;;;;25.22;67.70;99633.16;1650309;85;21111;-39
2021/07/01 06:33:40;;;;;;;19.82;11.78;;;;;;;25.24;67.86;99635.75;1681466;84;21057;-39
2021/07/01 06:36:05;;;;;;;21.70;11.12;;;;;;;25.35;67.29;99642.05;1715715;83;21031;-34
2021/07/01 06:38:53;;;;;;;11.65;7.60;;;;;;;25.45;66.92;99636.88;1682640;84;21584;-39
2021/07/01 06:41:38;;;;;;;15.55;8.50;;;;;;;25.52;64.89;99635.48;1671139;85;21064;-39
2021/07/01 06:44:23;;;;;;;16.90;8.33;;;;;;;25.65;64.56;99634.11;1690176;83;21037;-39
2021/07/01 06:47:08;;;;;;;12.47;9.38;;;;;;;25.74;64.52;99644.17;1703735;83;21104;-39
2021/07/01 06:49:54;;;;;;;15.50;8.63;;;;;;;25.82;64.23;99639.12;1680266;83;20992;-39
2021/07/01 06:52:43;;;;;;;8.68;7.58;;;;;;;25.89;63.69;99623.45;1678704;84;21061;-39
2021/07/01 06:55:28;;;;;;;11.90;7.20;;;;;;;25.99;62.21;99631.19;1692645;83;21467;-39
2021/07/01 06:58:05;;;;;;;10.78;7.22;;;;;;;25.99;61.78;99633.38;1705673;84;21048;-39
2021/07/01 07:00:32;;;;;;;17.30;7.87;;;;;;;25.98;61.64;99626.31;1712487;83;21009;-39
2021/07/01 07:02:58;;;;;;;11.75;6.67;;;;;;;25.89;61.76;99628.81;1712562;84;21647;-34
2021/07/01 07:05:26;;;;;;;14.60;7.00;;;;;;;25.80;60.45;99629.47;1712378;84;21925;-34
2021/07/01 07:07:54;;;;;;;14.35;6.62;;;;;;;25.71;60.73;99632.33;1710283;84;21066;-34
2021/07/01 07:10:22;;;;;;;14.10;6.83;;;;;;;25.68;62.14;99629.86;1702920;84;21077;-39
2021/07/01 07:12:53;;;;;;;10.75;6.22;;;;;;;25.74;62.09;99622.73;1704956;83;21157;-39
2021/07/01 07:15:28;;;;;;;11.85;6.22;;;;;;;25.82;61.57;99627.55;1709025;83;21067;-34
2021/07/01 07:18:16;;;;;;;10.28;6.62;;;;;;;25.91;61.07;99628.20;1717619;83;21044;-35
2021/07/01 07:20:44;;;;;;;17.10;6.85;;;;;;;26.04;60.38;99629.52;1703172;84;21511;-34
2021/07/01 07:23:13;;;;;;;8.60;6.47;;;;;;;26.18;59.43;99627.98;1708508;84;21058;-35
2021/07/01 07:25:41;;;;;;;13.70;6.97;;;;;;;26.21;59.53;99625.94;1702408;83;21081;-34
2021/07/01 07:28:09;;;;;;;8.00;6.12;;;;;;;26.18;60.29;99617.25;1693643;83;21065;-35
2021/07/01 07:30:36;;;;;;;9.13;6.15;;;;;;;26.22;60.83;99610.70;1713073;84;21012;-34
2021/07/01 07:33:05;;;;;;;16.62;6.15;;;;;;;26.33;61.11;99618.79;1707551;84;21029;-34
2021/07/01 07:35:33;;;;;;;14.18;5.97;;;;;;;26.43;60.02;99629.19;1699297;84;21061;-34
2021/07/01 07:38:00;;;;;;;10.18;5.90;;;;;;;26.41;58.36;99626.27;1705004;84;21060;-34
2021/07/01 07:40:29;;;;;;;13.00;5.92;;;;;;;26.36;58.61;99625.73;1716925;83;21031;-34
2021/07/01 07:42:58;;;;;;;12.95;6.35;;;;;;;26.34;59.25;99619.64;1707677;84;21053;-34
2021/07/01 07:45:25;;;;;;;14.25;6.20;;;;;;;26.30;59.90;99620.84;1701266;84;21034;-39
2021/07/01 07:47:51;;;;;;;10.28;5.42;;;;;;;26.30;60.65;99618.16;1702364;84;21097;-39
2021/07/01 07:50:19;;;;;;;15.23;6.78;;;;;;;26.32;60.28;99621.08;1691087;84;21024;-39
2021/07/01 07:52:48;;;;;;;12.23;6.33;;;;;;;26.34;60.41;99617.81;1702697;84;21065;-39
2021/07/01 07:55:16;;;;;;;10.85;5.55;;;;;;;26.39;59.70;99615.64;1704765;83;21514;-34
2021/07/01 07:57:45;;;;;;;10.50;6.08;;;;;;;26.45;58.73;99616.55;1706356;83;21060;-33
2021/07/01 08:00:12;;;;;;;13.43;6.42;;;;;;;26.51;58.64;99617.91;1708355;83;21023;-34
2021/07/01 08:02:53;;;;;;;14.60;5.72;;;;;;;26.59;57.82;99611.45;1688914;84;21424;-34
2021/07/01 08:05:25;;;;;;;7.30;4.85;;;;;;;26.69;57.00;99616.97;1702571;84;21561;-34
2021/07/01 08:07:51;;;;;;;9.58;5.28;;;;;;;26.77;55.50;99622.09;1704677;84;21024;-33
2021/07/01 08:10:19;;;;;;;15.90;6.80;;;;;;;26.79;54.81;99628.70;1705214;83;21027;-34
2021/07/01 08:12:51;;;;;;;11.97;5.10;;;;;;;26.72;55.15;99627.45;1675473;85;21509;-39
2021/07/01 08:15:19;;;;;;;9.58;5.97;;;;;;;26.65;56.67;99628.41;1697923;84;21037;-39
2021/07/01 08:17:48;;;;;;;22.85;6.25;;;;;;;26.63;57.40;99631.70;1705576;84;21042;-33
2021/07/01 08:20:17;;;;;;;8.63;5.87;;;;;;;26.63;57.07;99629.52;1695624;84;21044;-39
2021/07/01 08:22:46;;;;;;;11.63;5.62;;;;;;;26.66;57.68;99636.82;1685436;84;21076;-40
2021/07/01 08:25:14;;;;;;;12.25;6.12;;;;;;;26.73;57.44;99646.59;1686609;85;21938;-34
2021/07/01 08:27:41;;;;;;;11.28;6.08;;;;;;;26.76;57.39;99640.51;1687448;84;21089;-34
2021/07/01 08:30:09;;;;;;;16.10;6.15;;;;;;;26.77;57.13;99632.83;1702519;84;21006;-34
2021/07/01 08:32:37;;;;;;;9.50;5.33;;;;;;;26.83;58.18;99638.69;1690607;84;21128;-40
2021/07/01 08:35:05;;;;;;;11.95;5.20;;;;;;;26.87;56.04;99632.97;1686460;85;21080;-40
2021/07/01 08:37:33;;;;;;;11.20;5.55;;;;;;;26.88;56.17;99644.07;1686096;84;21704;-39
2021/07/01 08:40:03;;;;;;;13.03;5.33;;;;;;;26.82;55.99;99652.59;1683564;84;21081;-40
2021/07/01 08:42:36;;;;;;;12.88;5.53;;;;;;;26.77;57.65;99656.97;1686602;84;21064;-40
2021/07/01 08:45:09;;;;;;;21.17;11.83;;;;;;;26.77;58.28;99655.63;1677724;84;21003;-39
2021/07/01 08:47:42;;;;;;;19.60;10.20;;;;;;;26.78;58.96;99663.19;1624828;86;21071;-39
2021/07/01 08:50:17;;;;;;;17.00;7.92;;;;;;;26.77;58.02;99664.17;1686303;85;20994;-40
2021/07/01 08:53:05;;;;;;;10.58;5.35;;;;;;;26.74;58.09;99660.40;1685989;85;21581;-34
2021/07/01 08:55:32;;;;;;;17.75;9.10;;;;;;;26.71;57.73;99668.17;1678932;83;21042;-34
2021/07/01 08:58:00;;;;;;;16.37;8.50;;;;;;;26.67;57.72;99665.38;1663948;84;21075;-35
2021/07/01 09:00:28;;;;;;;17.32;9.55;;;;;;;26.68;57.54;99665.75;1671347;84;21070;-35
2021/07/01 09:03:05;;;;;;;24.15;10.10;;;;;;;26.71;57.55;99667.33;1667034;84;21082;-34
2021/07/01 09:05:36;;;;;;;23.62;11.20;;;;;;;26.73;57.46;99662.23;1684806;84;20982;-33
2021/07/01 09:08:10;;;;;;;16.25;7.10;;;;;;;26.84;58.00;99665.39;1688614;85;21904;-35
2021/07/01 09:10:38;;;;;;;12.93;5.37;;;;;;;27.02;57.98;99671.16;1688731;84;21503;-38
2021/07/01 09:13:10;;;;;;;16.00;7.90;;;;;;;27.13;57.26;99661.81;1695409;83;21108;-40
2021/07/01 09:15:38;;;;;;;11.57;5.85;;;;;;;27.12;56.73;99660.11;1699199;84;21908;-39
2021/07/01 09:18:06;;;;;;;23.98;9.85;;;;;;;27.05;56.24;99671.79;1700395;84;21092;-39
2021/07/01 09:20:37;;;;;;;14.35;6.12;;;;;;;26.98;57.76;99665.20;1633518;84;21068;-40
2021/07/01 09:23:06;;;;;;;10.17;5.37;;;;;;;26.85;56.92;99681.89;1673237;84;21866;-40
2021/07/01 09:25:34;;;;;;;16.65;5.62;;;;;;;26.74;56.65;99667.95;1678005;85;21154;-40
2021/07/01 09:28:01;;;;;;;8.98;6.15;;;;;;;26.65;57.29;99669.14;1677986;85;21109;-41
2021/07/01 09:30:30;;;;;;;10.70;5.45;;;;;;;26.58;57.81;99668.75;1676457;84;21053;-40
2021/07/01 09:33:04;;;;;;;15.32;5.15;;;;;;;26.55;58.07;99664.95;1663615;84;21101;-40
2021/07/01 09:35:34;;;;;;;12.58;5.30;;;;;;;26.57;57.45;99659.49;1667709;84;21592;-35
2021/07/01 09:38:10;;;;;;;12.20;4.87;;;;;;;26.65;57.90;99661.94;1666161;84;21112;-35
2021/07/01 09:40:37;;;;;;;9.48;5.00;;;;;;;26.78;56.28;99663.19;1664680;84;21032;-34
2021/07/01 09:43:06;;;;;;;11.57;5.08;;;;;;;26.84;56.68;99654.66;1669120;84;21065;-34
2021/07/01 09:45:34;;;;;;;12.33;6.00;;;;;;;26.86;56.13;99645.17;1671803;84;21006;-34
2021/07/01 09:48:14;;;;;;;13.50;5.85;;;;;;;26.87;55.56;99649.56;1660683;84;21112;-34
2021/07/01 09:50:45;;;;;;;12.93;5.20;;;;;;;26.91;55.91;99647.02;1678080;85;21512;-34
2021/07/01 09:53:26;;;;;;;10.50;6.20;;;;;;;26.98;56.10;99645.56;1667363;84;21120;-34
2021/07/01 09:55:53;;;;;;;9.88;5.87;;;;;;;27.01;55.53;99634.08;1669655;84;21053;-34
2021/07/01 09:58:21;;;;;;;13.13;5.62;;;;;;;27.05;56.36;99638.23;1672280;84;21028;-34
2021/07/01 10:00:52;;;;;;;11.60;5.08;;;;;;;27.12;54.18;99631.08;1694349;84;21524;-34
2021/07/01 10:03:19;;;;;;;8.78;4.75;;;;;;;27.22;53.92;99635.59;1694414;84;21061;-35
2021/07/01 10:05:46;;;;;;;10.70;4.87;;;;;;;27.26;52.56;99629.51;1671531;84;20974;-34
2021/07/01 10:08:13;;;;;;;8.30;5.20;;;;;;;27.25;53.79;99630.45;1670238;84;21055;-39
2021/07/01 10:10:46;;;;;;;11.53;4.80;;;;;;;27.29;54.38;99617.16;1687419;84;21599;-33
2021/07/01 10:13:13;;;;;;;11.08;4.90;;;;;;;27.40;53.69;99613.13;1687849;84;21079;-34
2021/07/01 10:15:41;;;;;;;7.30;4.92;;;;;;;27.55;53.89;99609.70;1689964;83;21063;-35
2021/07/01 10:18:13;;;;;;;6.85;4.35;;;;;;;27.62;52.10;99612.75;1703058;83;21623;-35
2021/07/01 10:20:44;;;;;;;8.18;4.30;;;;;;;27.56;51.62;99606.04;1701165;83;21489;-40
2021/07/01 10:23:24;;;;;;;10.88;5.03;;;;;;;27.55;52.33;99609.70;1697170;83;21563;-40
2021/07/01 10:25:59;;;;;;;10.60;5.33;;;;;;;27.63;51.88;99605.05;1712169;83;21056;-40
2021/07/01 10:28:27;;;;;;;9.75;4.42;;;;;;;27.65;51.95;99595.02;1708280;84;21627;-40
2021/07/01 10:31:10;;;;;;;12.73;5.03;;;;;;;27.70;53.38;99594.19;1702654;84;21001;-34
2021/07/01 10:33:39;;;;;;;12.03;4.45;;;;;;;27.74;52.81;99594.31;1706711;83;21048;-40
2021/07/01 10:36:23;;;;;;;8.65;4.42;;;;;;;27.77;52.89;99591.35;1712339;83;21440;-40
2021/07/01 10:38:51;;;;;;;12.90;5.05;;;;;;;27.83;52.35;99592.19;1706965;84;21056;-40
2021/07/01 10:41:37;;;;;;;9.33;4.65;;;;;;;27.83;51.48;99590.37;1712307;83;21017;-40
2021/07/01 10:44:05;;;;;;;9.78;4.25;;;;;;;27.83;50.46;99583.66;1710468;83;21067;-40
2021/07/01 10:46:44;;;;;;;8.75;3.80;;;;;;;27.90;50.87;99577.78;1704821;83;21036;-40
2021/07/01 10:49:12;;;;;;;6.53;3.58;;;;;;;28.01;49.55;99578.59;1713149;83;21520;-40
2021/07/01 10:51:54;;;;;;;14.03;3.80;;;;;;;28.16;49.13;99576.92;1717514;83;21027;-35
2021/07/01 10:54:21;;;;;;;9.88;3.98;;;;;;;28.29;48.14;99564.98;1713378;82;21032;-35
2021/07/01 10:56:49;;;;;;;6.08;3.65;;;;;;;28.44;47.76;99553.45;1712389;84;21036;-36
2021/07/01 10:59:16;;;;;;;8.40;3.70;;;;;;;28.68;47.74;99537.52;1701189;83;21124;-35
2021/07/01 11:01:45;;;;;;;6.87;4.25;;;;;;;28.86;46.97;99529.17;1698273;84;21073;-35
2021/07/01 11:04:18;;;;;;;8.45;3.72;;;;;;;29.05;47.04;99523.05;1702724;84;21496;-35
2021/07/01 11:07:00;;;;;;;10.80;3.45;;;;;;;29.25;47.50;99520.78;1703466;84;21046;-40
2021/07/01 11:09:43;;;;;;;7.62;3.65;;;;;;;29.45;45.82;99513.58;1705270;84;21020;-40
2021/07/01 11:12:11;;;;;;;10.00;3.72;;;;;;;29.68;46.80;99506.98;1710390;84;21001;-36
2021/07/01 11:14:45;;;;;;;5.95;3.90;;;;;;;29.97;44.59;99498.04;1673684;86;21077;-40
2021/07/01 11:17:12;;;;;;;9.28;4.20;;;;;;;30.22;44.52;99491.75;1644894;87;21034;-38
2021/07/01 11:19:46;;;;;;;9.05;3.17;;;;;;;30.47;43.50;99489.26;1644854;86;22642;-35
2021/07/01 11:22:16;;;;;;;5.87;3.02;;;;;;;30.58;40.00;99489.58;1645130;87;21042;-35
2021/07/01 11:24:45;;;;;;;9.70;3.12;;;;;;;30.50;39.94;99488.60;1661444;86;21075;-40
2021/07/01 11:27:12;;;;;;;8.50;3.52;;;;;;;30.37;40.54;99494.32;1656495;86;21052;-41
2021/07/01 11:29:46;;;;;;;8.33;3.10;;;;;;;30.24;40.54;99489.25;1651624;86;21073;-35
2021/07/01 11:32:20;;;;;;;5.85;3.42;;;;;;;30.16;40.65;99488.63;1654050;87;21072;-40
2021/07/01 11:34:49;;;;;;;5.85;3.15;;;;;;;30.11;40.33;99499.50;1647344;86;21553;-36
2021/07/01 11:37:36;;;;;;;10.98;3.27;;;;;;;30.03;41.86;99496.11;1650132;86;21137;-40
2021/07/01 11:40:19;;;;;;;7.97;4.03;;;;;;;29.88;41.99;99494.37;1652121;86;21024;-40
2021/07/01 11:42:52;;;;;;;10.03;3.85;;;;;;;29.73;42.95;99488.19;1654977;86;21111;-38
2021/07/01 11:45:20;;;;;;;7.85;2.85;;;;;;;29.58;42.79;99490.47;1653271;86;21549;-39
2021/07/01 11:47:47;;;;;;;10.32;3.35;;;;;;;29.43;42.84;99485.94;1610134;86;21194;-39
2021/07/01 11:50:14;;;;;;;9.68;4.28;;;;;;;29.32;43.35;99479.33;1661130;86;21567;-34
